createdAt,value
2024-02-02T00:31:11.514Z,-0.04
2024-02-02T00:34:21.444Z,-0.01
2024-02-02T00:37:11.768Z,0.02
2024-02-02T00:40:05.538Z,0.07
2024-02-02T00:43:17.815Z,0.09
2024-02-02T00:46:32.695Z,0.07
2024-02-02T00:49:14.840Z,0.13
2024-02-02T00:51:52.311Z,0.25
2024-02-02T00:54:48.442Z,0.39
2024-02-02T00:57:25.286Z,0.44
2024-02-02T01:00:04.010Z,0.46
2024-02-02T01:02:44.774Z,0.48
2024-02-02T01:06:10.185Z,0.51
2024-02-02T01:09:17.095Z,0.53
2024-02-02T01:11:55.366Z,0.57
2024-02-02T01:15:24.714Z,0.59
2024-02-02T01:18:59.124Z,0.60
2024-02-02T01:21:55.433Z,0.63
2024-02-02T01:24:44.118Z,0.71
2024-02-02T01:27:53.065Z,0.77
2024-02-02T01:31:24.603Z,0.81
2024-02-02T01:34:53.598Z,0.82
2024-02-02T01:38:27.929Z,0.83
2024-02-02T01:41:01.946Z,0.84
2024-02-02T01:43:34.890Z,0.85
2024-02-02T01:46:30.631Z,0.83
2024-02-02T01:49:38.778Z,0.83
2024-02-02T01:52:39.928Z,0.83
2024-02-02T01:55:33.610Z,0.84
2024-02-02T01:58:34.603Z,0.82
2024-02-02T02:01:25.655Z,0.88
2024-02-02T02:04:34.706Z,0.94
2024-02-02T02:07:55.097Z,0.98
2024-02-02T02:10:56.547Z,1.02
2024-02-02T02:13:56.942Z,1.05
2024-02-02T02:16:56.094Z,1.08
2024-02-02T02:20:34.327Z,1.08
2024-02-02T02:24:24.558Z,1.06
2024-02-02T02:35:38.524Z,0.91
2024-02-02T02:39:27.358Z,0.76
2024-02-02T02:57:41.775Z,0.41
2024-02-02T03:01:30.662Z,0.43
2024-02-02T03:05:19.429Z,0.44
2024-02-02T03:08:51.259Z,0.41
2024-02-02T03:12:08.257Z,0.39
2024-02-02T03:40:42.641Z,0.53
2024-02-02T03:43:35.132Z,0.52
2024-02-02T03:46:14.942Z,0.49
2024-02-02T03:48:45.542Z,0.49
2024-02-02T03:51:40.063Z,0.50
2024-02-02T03:54:09.246Z,0.50
2024-02-02T03:56:44.143Z,0.48
2024-02-02T03:59:20.492Z,0.53
2024-02-02T04:01:52.869Z,0.61
2024-02-02T04:04:21.508Z,0.69
2024-02-02T04:07:05.467Z,0.76
2024-02-02T04:09:37.501Z,0.81
2024-02-02T04:12:11.778Z,0.80
2024-02-02T04:14:43.118Z,0.78
2024-02-02T04:17:12.027Z,0.77
2024-02-02T04:20:00.722Z,0.79
2024-02-02T04:22:29.316Z,0.83
2024-02-02T04:25:00.727Z,0.85
2024-02-02T04:27:31.851Z,0.86
2024-02-02T04:30:00.759Z,0.87
2024-02-02T04:32:33.792Z,0.86
2024-02-02T04:35:05.471Z,0.84
2024-02-02T04:38:15.012Z,0.79
2024-02-02T04:41:09.459Z,0.77
2024-02-02T04:44:30.261Z,0.70
2024-02-02T04:47:41.836Z,0.71
2024-02-02T04:50:16.281Z,0.79
2024-02-02T04:53:21.170Z,0.83
2024-02-02T04:56:14.886Z,0.88
2024-02-02T05:00:03.501Z,0.93
2024-02-02T05:03:21.745Z,0.98
2024-02-02T05:06:19.481Z,1.03
2024-02-02T05:08:56.753Z,1.07
2024-02-02T05:11:37.750Z,1.08
2024-02-02T05:14:37.811Z,1.13
2024-02-02T05:17:09.546Z,1.13
2024-02-02T05:19:43.982Z,1.14
2024-02-02T05:22:30.717Z,1.13
2024-02-02T05:25:04.696Z,1.16
2024-02-02T05:28:02.069Z,1.17
2024-02-02T05:30:36.131Z,1.23
2024-02-02T05:33:27.641Z,1.31
2024-02-02T05:35:55.935Z,1.42
2024-02-02T05:38:24.290Z,1.53
2024-02-02T05:41:38.132Z,1.63
2024-02-02T05:44:10.162Z,1.75
2024-02-02T05:46:38.807Z,1.91
2024-02-02T05:49:47.538Z,2.06
2024-02-02T05:52:16.430Z,2.16
2024-02-02T05:55:11.034Z,2.24
2024-02-02T05:58:06.583Z,2.28
2024-02-02T06:01:02.758Z,2.32
2024-02-02T06:03:34.217Z,2.37
2024-02-02T06:06:07.910Z,2.37
2024-02-02T06:08:36.396Z,2.38
2024-02-02T06:11:05.161Z,2.39
2024-02-02T06:13:34.592Z,2.41
2024-02-02T06:16:03.150Z,2.47
2024-02-02T06:18:31.620Z,2.58
2024-02-02T06:21:00.090Z,2.59
2024-02-02T06:23:28.761Z,2.59
2024-02-02T06:25:57.079Z,2.58
2024-02-02T06:28:25.430Z,2.60
2024-02-02T06:30:53.817Z,2.63
2024-02-02T06:33:22.305Z,2.70
2024-02-02T06:35:50.814Z,2.74
2024-02-02T06:38:19.239Z,2.78
2024-02-02T06:40:47.538Z,2.89
2024-02-02T06:43:15.970Z,2.94
2024-02-02T06:45:48.696Z,3.05
2024-02-02T06:48:17.982Z,3.08
2024-02-02T06:50:46.555Z,3.14
2024-02-02T06:53:17.088Z,3.20
2024-02-02T06:55:46.693Z,3.21
2024-02-02T06:58:38.724Z,3.30
2024-02-02T07:01:08.524Z,3.33
2024-02-02T07:03:37.991Z,3.44
2024-02-02T07:06:07.826Z,3.50
2024-02-02T07:08:36.685Z,3.57
2024-02-02T07:11:42.695Z,3.57
2024-02-02T07:14:36.023Z,3.64
2024-02-02T07:17:13.256Z,3.67
2024-02-02T07:19:43.104Z,3.72
2024-02-02T07:22:35.069Z,3.75
2024-02-02T07:25:06.312Z,3.71
2024-02-02T07:27:55.905Z,3.69
2024-02-02T07:30:49.154Z,3.66
2024-02-02T07:33:46.836Z,3.63
2024-02-02T07:36:28.791Z,3.58
2024-02-02T07:38:58.268Z,3.61
2024-02-02T07:41:28.861Z,3.60
2024-02-02T07:44:00.770Z,3.61
2024-02-02T07:46:29.902Z,3.61
2024-02-02T07:49:01.042Z,3.59
2024-02-02T07:51:29.719Z,3.58
2024-02-02T07:53:58.974Z,3.56
2024-02-02T07:56:27.382Z,3.51
2024-02-02T07:58:59.978Z,3.55
2024-02-02T08:01:32.620Z,3.55
2024-02-02T08:04:02.708Z,3.50
2024-02-02T08:06:31.814Z,3.47
2024-02-02T08:09:00.635Z,3.51
2024-02-02T08:11:36.296Z,3.50
2024-02-02T08:14:04.531Z,3.50
2024-02-02T08:16:32.768Z,3.51
2024-02-02T08:19:01.092Z,3.55
2024-02-02T08:21:29.526Z,3.53
2024-02-02T08:23:59.738Z,3.53
2024-02-02T08:26:27.956Z,3.51
2024-02-02T08:28:56.406Z,3.52
2024-02-02T08:31:24.773Z,3.53
2024-02-02T08:33:53.241Z,3.53
2024-02-02T08:36:21.895Z,3.53
2024-02-02T08:38:50.224Z,3.59
2024-02-02T08:41:19.309Z,3.59
2024-02-02T08:43:48.810Z,3.58
2024-02-02T08:46:21.011Z,3.55
2024-02-02T08:48:53.300Z,3.59
2024-02-02T08:51:47.830Z,3.60
2024-02-02T08:54:40.103Z,3.59
2024-02-02T08:57:33.177Z,3.68
2024-02-02T09:00:12.496Z,3.75
2024-02-02T09:03:06.083Z,3.71
2024-02-02T09:05:51.155Z,3.67
2024-02-02T09:08:36.596Z,3.62
2024-02-02T09:11:18.868Z,3.57
2024-02-02T09:14:01.260Z,3.44
2024-02-02T09:16:40.620Z,3.41
2024-02-02T09:19:25.442Z,3.40
2024-02-02T09:21:58.976Z,3.41
2024-02-02T09:24:42.318Z,3.33
2024-02-02T09:27:17.025Z,3.28
2024-02-02T09:29:50.197Z,3.25
2024-02-02T09:32:21.916Z,3.22
2024-02-02T09:34:50.632Z,3.21
2024-02-02T09:37:26.375Z,3.21
2024-02-02T09:39:59.093Z,3.24
2024-02-02T09:42:55.502Z,3.31
2024-02-02T09:45:49.944Z,3.37
2024-02-02T09:48:33.781Z,3.31
2024-02-02T09:51:23.513Z,3.33
2024-02-02T09:54:18.810Z,3.32
2024-02-02T09:57:27.397Z,3.29
2024-02-02T10:00:31.496Z,3.32
2024-02-02T10:03:22.691Z,3.41
2024-02-02T10:06:27.656Z,3.41
2024-02-02T10:09:35.946Z,3.41
2024-02-02T10:12:19.171Z,3.41
2024-02-02T10:15:22.348Z,3.40
2024-02-02T10:18:10.478Z,3.47
2024-02-02T10:20:47.253Z,3.55
2024-02-02T10:23:42.960Z,3.66
2024-02-02T10:26:40.697Z,3.73
2024-02-02T10:29:33.437Z,3.75
2024-02-02T10:32:20.439Z,3.77
2024-02-02T10:35:16.011Z,3.74
2024-02-02T10:37:50.507Z,3.71
2024-02-02T10:40:40.935Z,3.71
2024-02-02T10:43:35.805Z,3.71
2024-02-02T10:46:23.712Z,3.74
2024-02-02T10:49:16.841Z,3.78
2024-02-02T10:52:09.480Z,3.83
2024-02-02T10:54:57.017Z,3.85
2024-02-02T10:57:38.243Z,3.87
2024-02-02T11:00:25.378Z,3.89
2024-02-02T11:03:10.250Z,3.90
2024-02-02T11:05:51.446Z,3.89
2024-02-02T11:08:23.742Z,3.88
2024-02-02T11:11:14.008Z,3.88
2024-02-02T11:14:06.165Z,3.93
2024-02-02T11:17:08.931Z,3.99
2024-02-02T11:20:08.117Z,3.98
2024-02-02T11:22:48.155Z,3.98
2024-02-02T11:25:27.141Z,3.98
2024-02-02T11:28:10.925Z,4.02
2024-02-02T11:30:59.156Z,4.03
2024-02-02T11:34:07.773Z,3.99
2024-02-02T11:36:57.819Z,4.00
2024-02-02T11:39:52.386Z,4.04
2024-02-02T11:42:31.487Z,4.12
2024-02-02T11:45:07.089Z,4.14
2024-02-02T11:48:02.046Z,4.18
2024-02-02T11:50:46.951Z,4.19
2024-02-02T11:53:40.335Z,4.24
2024-02-02T11:56:39.426Z,4.28
2024-02-02T11:59:28.657Z,4.32
2024-02-02T12:02:32.094Z,4.34
2024-02-02T12:05:19.807Z,4.38
2024-02-02T12:08:17.989Z,4.42
2024-02-02T12:10:47.835Z,4.43
2024-02-02T12:13:29.079Z,4.41
2024-02-02T12:16:06.120Z,4.44
2024-02-02T12:18:41.943Z,4.44
2024-02-02T12:21:16.465Z,4.49
2024-02-02T12:23:48.410Z,4.58
2024-02-02T12:26:17.184Z,4.57
2024-02-02T12:28:46.122Z,4.60
2024-02-02T12:31:14.248Z,4.58
2024-02-02T12:33:43.607Z,4.56
2024-02-02T12:36:13.076Z,4.49
2024-02-02T12:38:43.013Z,4.51
2024-02-02T12:41:14.358Z,4.53
2024-02-02T12:43:47.921Z,4.60
2024-02-02T12:46:19.243Z,4.60
2024-02-02T12:48:47.771Z,4.55
2024-02-02T12:51:22.303Z,4.52
2024-02-02T12:53:51.141Z,4.50
2024-02-02T12:56:19.748Z,4.54
2024-02-02T12:58:50.878Z,4.53
2024-02-02T13:01:19.904Z,4.55
2024-02-02T13:03:50.950Z,4.59
2024-02-02T13:06:20.081Z,4.62
2024-02-02T13:08:54.349Z,4.58
2024-02-02T13:11:24.952Z,4.51
2024-02-02T13:14:05.249Z,4.53
2024-02-02T13:16:36.060Z,4.54
2024-02-02T13:19:08.493Z,4.55
2024-02-02T13:21:43.590Z,4.58
2024-02-02T13:24:19.581Z,4.68
2024-02-02T13:26:52.278Z,4.73
2024-02-02T13:29:28.054Z,4.80
2024-02-02T13:31:56.643Z,4.84
2024-02-02T13:34:25.536Z,4.87
2024-02-02T13:37:06.971Z,4.89
2024-02-02T13:39:44.303Z,4.90
2024-02-02T13:42:17.474Z,4.91
2024-02-02T13:44:49.279Z,4.91
2024-02-02T13:47:24.006Z,4.93
2024-02-02T13:50:01.164Z,4.93
2024-02-02T13:52:36.760Z,4.97
2024-02-02T13:55:14.054Z,4.94
2024-02-02T13:57:43.701Z,4.93
2024-02-02T14:00:19.119Z,4.94
2024-02-02T14:02:52.439Z,4.93
2024-02-02T14:05:24.548Z,4.93
2024-02-02T14:08:21.532Z,4.90
2024-02-02T14:11:16.296Z,4.90
2024-02-02T14:13:47.690Z,4.88
2024-02-02T14:16:20.213Z,4.87
2024-02-02T14:19:07.725Z,4.87
2024-02-02T14:21:38.890Z,4.90
2024-02-02T14:24:16.291Z,4.89
2024-02-02T14:26:53.491Z,4.86
2024-02-02T14:29:39.888Z,4.79
2024-02-02T14:32:28.632Z,4.70
2024-02-02T14:35:00.064Z,4.64
2024-02-02T14:37:33.836Z,4.57
2024-02-02T14:40:05.544Z,4.52
2024-02-02T14:42:38.927Z,4.51
2024-02-02T14:45:16.405Z,4.49
2024-02-02T14:47:45.500Z,4.41
2024-02-02T14:50:25.975Z,4.37
2024-02-02T14:52:55.068Z,4.35
2024-02-02T14:55:33.582Z,4.35
2024-02-02T14:58:05.321Z,4.34
2024-02-02T15:00:34.527Z,4.30
2024-02-02T15:03:09.346Z,4.22
2024-02-02T15:05:49.416Z,4.17
2024-02-02T15:08:18.565Z,4.12
2024-02-02T15:10:57.108Z,4.13
2024-02-02T15:13:39.181Z,4.28
2024-02-02T15:16:39.281Z,4.38
2024-02-02T15:19:27.068Z,4.41
2024-02-02T15:22:04.106Z,4.37
2024-02-02T15:25:09.303Z,4.29
2024-02-02T15:27:39.328Z,4.22
2024-02-02T15:30:31.724Z,4.16
2024-02-02T15:34:07.989Z,4.07
2024-02-02T15:37:01.851Z,4.03
2024-02-02T15:40:28.076Z,4.01
2024-02-02T15:43:24.635Z,3.93
2024-02-02T15:46:17.836Z,3.85
2024-02-02T15:49:11.784Z,3.80
2024-02-02T15:52:17.996Z,3.78
2024-02-02T15:55:35.649Z,3.77
2024-02-02T15:58:39.061Z,3.71
2024-02-02T16:01:37.300Z,3.69
2024-02-02T16:04:16.546Z,3.68
2024-02-02T16:08:02.852Z,3.64
2024-02-02T16:11:31.094Z,3.59
2024-02-02T16:14:06.317Z,3.63
2024-02-02T16:16:35.052Z,3.63
2024-02-02T16:19:06.036Z,3.61
2024-02-02T16:21:34.630Z,3.61
2024-02-02T16:24:06.883Z,3.59
2024-02-02T16:26:36.108Z,3.60
2024-02-02T16:29:07.274Z,3.58
2024-02-02T16:31:35.807Z,3.56
2024-02-02T16:34:04.518Z,3.56
2024-02-02T16:36:50.057Z,3.59
2024-02-02T16:39:18.320Z,3.63
2024-02-02T16:41:47.391Z,3.64
2024-02-02T16:44:17.070Z,3.64
2024-02-02T16:46:45.732Z,3.60
2024-02-02T16:49:14.264Z,3.59
2024-02-02T16:51:43.273Z,3.57
2024-02-02T16:54:19.292Z,3.59
2024-02-02T16:56:50.853Z,3.59
2024-02-02T16:59:22.015Z,3.58
2024-02-02T17:02:07.924Z,3.55
2024-02-02T17:04:36.545Z,3.52
2024-02-02T17:07:05.629Z,3.51
2024-02-02T17:09:39.435Z,3.48
2024-02-02T17:12:08.930Z,3.49
2024-02-02T17:14:39.770Z,3.50
2024-02-02T17:17:08.337Z,3.53
2024-02-02T17:19:41.992Z,3.55
2024-02-02T17:22:10.530Z,3.57
2024-02-02T17:24:39.284Z,3.53
2024-02-02T17:27:07.683Z,3.49
2024-02-02T17:29:40.965Z,3.45
2024-02-02T17:32:09.530Z,3.41
2024-02-02T17:34:37.944Z,3.44
2024-02-02T17:37:06.670Z,3.49
2024-02-02T17:39:42.155Z,3.50
2024-02-02T17:42:16.142Z,3.47
2024-02-02T17:44:49.434Z,3.46
2024-02-02T17:47:22.468Z,3.44
2024-02-02T17:49:55.471Z,3.40
2024-02-02T17:52:28.172Z,3.35
2024-02-02T17:54:58.066Z,3.29
2024-02-02T17:57:32.267Z,3.28
2024-02-02T18:00:25.903Z,3.25
2024-02-02T18:03:53.736Z,3.23
2024-02-02T18:06:45.141Z,3.19
2024-02-02T18:09:56.870Z,3.15
2024-02-02T18:12:38.408Z,3.13
2024-02-02T18:15:11.306Z,3.07
2024-02-02T18:17:47.299Z,2.97
2024-02-02T18:20:27.871Z,2.97
2024-02-02T18:23:01.867Z,3.02
2024-02-02T18:25:30.771Z,3.05
2024-02-02T18:28:02.062Z,3.03
2024-02-02T18:30:32.843Z,3.03
2024-02-02T18:33:00.929Z,3.02
2024-02-02T18:35:29.448Z,2.98
2024-02-02T18:37:57.503Z,2.92
2024-02-02T18:40:27.128Z,2.82
2024-02-02T18:43:01.442Z,2.80
2024-02-02T18:45:51.755Z,2.78
2024-02-02T18:48:43.862Z,2.75
2024-02-02T18:51:29.762Z,2.68
2024-02-02T18:54:13.217Z,2.58
2024-02-02T18:57:11.635Z,2.53
2024-02-02T19:00:38.407Z,2.47
2024-02-02T19:04:27.307Z,2.41
2024-02-02T19:07:36.922Z,2.41
2024-02-02T19:10:21.514Z,2.43
2024-02-02T19:13:31.588Z,2.41
2024-02-02T19:16:46.099Z,2.38
2024-02-02T19:19:19.953Z,2.32
2024-02-02T19:21:48.963Z,2.24
2024-02-02T19:24:17.624Z,2.16
2024-02-02T19:26:51.355Z,2.12
2024-02-02T19:29:23.451Z,2.07
2024-02-02T19:31:57.832Z,2.00
2024-02-02T19:34:30.563Z,1.90
2024-02-02T19:37:00.654Z,1.83
2024-02-02T19:39:29.157Z,1.76
2024-02-02T19:41:58.531Z,1.78
2024-02-02T19:44:33.530Z,1.79
2024-02-02T19:47:02.189Z,1.72
2024-02-02T19:50:11.062Z,1.71
2024-02-02T19:53:28.270Z,1.64
2024-02-02T19:57:02.454Z,1.62
2024-02-02T20:00:35.989Z,1.63
2024-02-02T20:04:04.938Z,1.65
2024-02-02T20:07:45.053Z,1.61
2024-02-02T20:10:34.278Z,1.59
2024-02-02T20:14:00.894Z,1.54
2024-02-02T20:16:52.802Z,1.49
2024-02-02T20:19:26.294Z,1.51
2024-02-02T20:21:55.143Z,1.54
2024-02-02T20:24:24.126Z,1.56
2024-02-02T20:26:55.313Z,1.54
2024-02-02T20:29:24.087Z,1.52
2024-02-02T20:31:52.374Z,1.49
2024-02-02T20:34:21.039Z,1.47
2024-02-02T20:36:49.866Z,1.42
2024-02-02T20:39:18.166Z,1.39
2024-02-02T20:41:46.639Z,1.35
2024-02-02T20:44:16.202Z,1.30
2024-02-02T20:46:45.200Z,1.23
2024-02-02T20:49:18.645Z,1.20
2024-02-02T20:51:50.328Z,1.12
2024-02-02T20:54:18.785Z,1.09
2024-02-02T20:56:47.158Z,1.09
2024-02-02T20:59:15.985Z,1.13
2024-02-02T21:01:44.475Z,1.13
2024-02-02T21:04:12.749Z,1.12
2024-02-02T21:06:43.714Z,1.09
2024-02-02T21:09:12.035Z,1.05
2024-02-02T21:11:40.613Z,1.04
2024-02-02T21:14:09.143Z,0.99
2024-02-02T21:16:37.718Z,0.97
2024-02-02T21:19:07.461Z,0.90
2024-02-02T21:21:38.011Z,0.87
2024-02-02T21:24:06.964Z,0.86
2024-02-02T21:26:35.196Z,0.80
2024-02-02T21:29:03.342Z,0.75
2024-02-02T21:31:31.436Z,0.74
2024-02-02T21:33:59.553Z,0.71
2024-02-02T21:36:28.923Z,0.67
2024-02-02T21:38:58.449Z,0.56
2024-02-02T21:41:29.662Z,0.52
2024-02-02T21:43:58.540Z,0.48
2024-02-02T21:46:27.296Z,0.48
2024-02-02T21:48:55.828Z,0.51
2024-02-02T21:51:24.512Z,0.55
2024-02-02T21:53:53.048Z,0.54
2024-02-02T21:56:22.155Z,0.48
2024-02-02T21:58:50.556Z,0.43
2024-02-02T22:01:18.650Z,0.41
2024-02-02T22:03:47.044Z,0.45
2024-02-02T22:06:15.951Z,0.45
2024-02-02T22:08:44.669Z,0.44
2024-02-02T22:11:14.329Z,0.39
2024-02-02T22:13:43.612Z,0.34
2024-02-02T22:16:11.955Z,0.30
2024-02-02T22:18:59.158Z,0.28
2024-02-02T22:21:29.091Z,0.30
2024-02-02T22:23:57.818Z,0.34
2024-02-02T22:26:26.083Z,0.33
2024-02-02T22:28:57.712Z,0.32
2024-02-02T22:31:26.157Z,0.30
2024-02-02T22:33:57.518Z,0.28
2024-02-02T22:36:26.186Z,0.29
2024-02-02T22:38:56.282Z,0.28
2024-02-02T22:41:33.061Z,0.24
2024-02-02T22:44:03.149Z,0.20
2024-02-02T22:46:32.553Z,0.16
2024-02-02T22:49:02.467Z,0.12
2024-02-02T22:51:45.014Z,0.13
2024-02-02T22:54:13.943Z,0.12
2024-02-02T22:56:42.820Z,0.11
2024-02-02T22:59:11.627Z,0.11
2024-02-02T23:01:40.236Z,0.08
2024-02-02T23:04:08.820Z,-0.01
2024-02-02T23:06:37.473Z,-0.07
2024-02-02T23:09:24.830Z,-0.09
2024-02-02T23:11:58.997Z,-0.08
2024-02-02T23:14:58.984Z,-0.04
2024-02-02T23:18:17.337Z,-0.03
2024-02-02T23:21:23.726Z,-0.04
2024-02-02T23:24:12.276Z,-0.06
2024-02-02T23:26:40.919Z,-0.07
2024-02-02T23:29:09.947Z,-0.10
2024-02-02T23:31:38.990Z,-0.10
2024-02-02T23:34:07.541Z,-0.12
2024-02-02T23:36:39.021Z,-0.17
2024-02-02T23:39:07.761Z,-0.21
2024-02-02T23:41:36.140Z,-0.21
2024-02-02T23:44:04.538Z,-0.21
2024-02-02T23:46:32.669Z,-0.22
2024-02-02T23:49:03.267Z,-0.25
2024-02-02T23:51:31.728Z,-0.26
2024-02-02T23:53:59.883Z,-0.32
2024-02-02T23:56:30.704Z,-0.31
2024-02-02T23:59:01.021Z,-0.31
